sensor_id;sensor_type;location;lat;lon;timestamp;P1;durP1;ratioP1;P2;durP2;ratioP2
32826;SDS011;51059;42.058;27.986;2023-02-03T00:02:16;1.70;;;1.13;;
32826;SDS011;51059;42.058;27.986;2023-02-03T00:04:42;2.97;;;1.40;;
32826;SDS011;51059;42.058;27.986;2023-02-03T00:07:10;2.33;;;1.33;;
32826;SDS011;51059;42.058;27.986;2023-02-03T00:09:36;2.90;;;1.23;;
32826;SDS011;51059;42.058;27.986;2023-02-03T00:12:02;2.73;;;1.40;;
32826;SDS011;51059;42.058;27.986;2023-02-03T00:14:28;2.33;;;1.40;;
32826;SDS011;51059;42.058;27.986;2023-02-03T00:16:53;2.43;;;1.40;;
32826;SDS011;51059;42.058;27.986;2023-02-03T00:19:19;3.90;;;1.70;;
32826;SDS011;51059;42.058;27.986;2023-02-03T00:21:45;5.20;;;2.30;;
32826;SDS011;51059;42.058;27.986;2023-02-03T00:24:10;5.30;;;3.00;;
32826;SDS011;51059;42.058;27.986;2023-02-03T00:26:39;3.97;;;2.50;;
32826;SDS011;51059;42.058;27.986;2023-02-03T00:29:06;4.13;;;1.97;;
32826;SDS011;51059;42.058;27.986;2023-02-03T00:31:33;5.77;;;2.83;;
32826;SDS011;51059;42.058;27.986;2023-02-03T00:33:58;5.97;;;2.80;;
32826;SDS011;51059;42.058;27.986;2023-02-03T00:36:24;3.97;;;2.40;;
32826;SDS011;51059;42.058;27.986;2023-02-03T00:38:51;4.77;;;2.73;;
32826;SDS011;51059;42.058;27.986;2023-02-03T00:41:17;5.23;;;2.60;;
32826;SDS011;51059;42.058;27.986;2023-02-03T00:43:43;5.00;;;3.00;;
32826;SDS011;51059;42.058;27.986;2023-02-03T00:46:09;5.23;;;3.30;;
32826;SDS011;51059;42.058;27.986;2023-02-03T00:48:34;4.17;;;2.87;;
32826;SDS011;51059;42.058;27.986;2023-02-03T00:51:00;5.20;;;2.57;;
32826;SDS011;51059;42.058;27.986;2023-02-03T00:53:26;3.83;;;1.90;;
32826;SDS011;51059;42.058;27.986;2023-02-03T00:55:51;2.57;;;1.83;;
32826;SDS011;51059;42.058;27.986;2023-02-03T00:58:17;3.37;;;1.67;;
32826;SDS011;51059;42.058;27.986;2023-02-03T01:00:42;2.40;;;1.63;;
32826;SDS011;51059;42.058;27.986;2023-02-03T01:03:08;4.87;;;1.50;;
32826;SDS011;51059;42.058;27.986;2023-02-03T01:05:34;2.20;;;1.53;;
32826;SDS011;51059;42.058;27.986;2023-02-03T01:08:00;3.90;;;1.57;;
32826;SDS011;51059;42.058;27.986;2023-02-03T01:10:26;3.77;;;1.63;;
32826;SDS011;51059;42.058;27.986;2023-02-03T01:12:52;4.00;;;2.13;;
32826;SDS011;51059;42.058;27.986;2023-02-03T01:15:17;11.53;;;2.40;;
32826;SDS011;51059;42.058;27.986;2023-02-03T01:17:43;4.27;;;1.73;;
32826;SDS011;51059;42.058;27.986;2023-02-03T01:20:09;3.60;;;2.27;;
32826;SDS011;51059;42.058;27.986;2023-02-03T01:22:38;5.10;;;2.77;;
32826;SDS011;51059;42.058;27.986;2023-02-03T01:25:04;8.17;;;3.27;;
32826;SDS011;51059;42.058;27.986;2023-02-03T01:27:33;6.80;;;3.23;;
32826;SDS011;51059;42.058;27.986;2023-02-03T01:29:58;7.53;;;3.20;;
32826;SDS011;51059;42.058;27.986;2023-02-03T01:32:24;5.73;;;3.03;;
32826;SDS011;51059;42.058;27.986;2023-02-03T01:34:50;7.37;;;2.83;;
32826;SDS011;51059;42.058;27.986;2023-02-03T01:37:15;3.80;;;2.17;;
32826;SDS011;51059;42.058;27.986;2023-02-03T01:39:42;5.17;;;2.27;;
32826;SDS011;51059;42.058;27.986;2023-02-03T01:42:11;4.63;;;2.30;;
32826;SDS011;51059;42.058;27.986;2023-02-03T01:44:45;6.50;;;3.03;;
32826;SDS011;51059;42.058;27.986;2023-02-03T01:47:24;5.03;;;2.70;;
32826;SDS011;51059;42.058;27.986;2023-02-03T01:49:57;5.00;;;2.40;;
32826;SDS011;51059;42.058;27.986;2023-02-03T01:52:57;4.30;;;2.13;;
32826;SDS011;51059;42.058;27.986;2023-02-03T01:55:27;2.90;;;2.00;;
32826;SDS011;51059;42.058;27.986;2023-02-03T01:58:03;4.50;;;2.60;;
32826;SDS011;51059;42.058;27.986;2023-02-03T02:00:33;3.20;;;2.20;;
32826;SDS011;51059;42.058;27.986;2023-02-03T02:02:59;4.37;;;2.60;;
32826;SDS011;51059;42.058;27.986;2023-02-03T02:05:34;3.67;;;2.57;;
32826;SDS011;51059;42.058;27.986;2023-02-03T02:08:17;2.80;;;2.10;;
32826;SDS011;51059;42.058;27.986;2023-02-03T02:10:44;3.97;;;2.30;;
32826;SDS011;51059;42.058;27.986;2023-02-03T02:13:09;2.47;;;1.77;;
32826;SDS011;51059;42.058;27.986;2023-02-03T02:18:23;4.40;;;2.10;;
32826;SDS011;51059;42.058;27.986;2023-02-03T02:23:40;4.60;;;2.90;;
32826;SDS011;51059;42.058;27.986;2023-02-03T02:32:45;3.40;;;2.50;;
32826;SDS011;51059;42.058;27.986;2023-02-03T02:41:18;3.67;;;2.53;;
32826;SDS011;51059;42.058;27.986;2023-02-03T02:46:33;5.00;;;3.20;;
32826;SDS011;51059;42.058;27.986;2023-02-03T02:49:03;6.80;;;3.03;;
32826;SDS011;51059;42.058;27.986;2023-02-03T02:51:33;5.40;;;2.50;;
32826;SDS011;51059;42.058;27.986;2023-02-03T02:54:04;3.20;;;2.07;;
32826;SDS011;51059;42.058;27.986;2023-02-03T02:56:32;2.73;;;1.90;;
32826;SDS011;51059;42.058;27.986;2023-02-03T02:58:59;3.77;;;2.20;;
32826;SDS011;51059;42.058;27.986;2023-02-03T03:01:27;5.93;;;2.23;;
32826;SDS011;51059;42.058;27.986;2023-02-03T03:03:52;3.30;;;2.10;;
32826;SDS011;51059;42.058;27.986;2023-02-03T03:06:26;4.40;;;2.07;;
32826;SDS011;51059;42.058;27.986;2023-02-03T03:09:01;3.97;;;2.20;;
32826;SDS011;51059;42.058;27.986;2023-02-03T03:11:30;4.50;;;1.90;;
32826;SDS011;51059;42.058;27.986;2023-02-03T03:13:57;3.63;;;1.93;;
32826;SDS011;51059;42.058;27.986;2023-02-03T03:16:26;3.20;;;2.10;;
32826;SDS011;51059;42.058;27.986;2023-02-03T03:18:58;3.73;;;2.10;;
32826;SDS011;51059;42.058;27.986;2023-02-03T03:21:46;4.60;;;2.33;;
32826;SDS011;51059;42.058;27.986;2023-02-03T03:24:15;5.53;;;2.90;;
32826;SDS011;51059;42.058;27.986;2023-02-03T03:26:46;5.50;;;2.43;;
32826;SDS011;51059;42.058;27.986;2023-02-03T03:31:43;2.83;;;1.80;;
32826;SDS011;51059;42.058;27.986;2023-02-03T03:34:10;2.67;;;1.87;;
32826;SDS011;51059;42.058;27.986;2023-02-03T03:36:39;2.23;;;1.67;;
32826;SDS011;51059;42.058;27.986;2023-02-03T03:39:18;4.80;;;2.00;;
32826;SDS011;51059;42.058;27.986;2023-02-03T03:41:56;4.17;;;1.90;;
32826;SDS011;51059;42.058;27.986;2023-02-03T03:44:27;3.60;;;2.60;;
32826;SDS011;51059;42.058;27.986;2023-02-03T03:46:58;6.43;;;2.37;;
32826;SDS011;51059;42.058;27.986;2023-02-03T03:49:30;4.07;;;2.47;;
32826;SDS011;51059;42.058;27.986;2023-02-03T03:51:57;4.33;;;2.20;;
32826;SDS011;51059;42.058;27.986;2023-02-03T03:54:25;3.53;;;2.30;;
32826;SDS011;51059;42.058;27.986;2023-02-03T03:56:57;3.33;;;2.17;;
32826;SDS011;51059;42.058;27.986;2023-02-03T03:59:26;3.47;;;2.10;;
32826;SDS011;51059;42.058;27.986;2023-02-03T04:01:53;3.07;;;2.10;;
32826;SDS011;51059;42.058;27.986;2023-02-03T04:04:19;6.03;;;3.50;;
32826;SDS011;51059;42.058;27.986;2023-02-03T04:06:45;6.13;;;3.50;;
32826;SDS011;51059;42.058;27.986;2023-02-03T04:09:11;3.80;;;2.67;;
32826;SDS011;51059;42.058;27.986;2023-02-03T04:11:36;3.73;;;2.00;;
32826;SDS011;51059;42.058;27.986;2023-02-03T04:14:20;2.40;;;1.70;;
32826;SDS011;51059;42.058;27.986;2023-02-03T04:16:46;2.50;;;1.53;;
32826;SDS011;51059;42.058;27.986;2023-02-03T04:19:11;4.17;;;1.73;;
32826;SDS011;51059;42.058;27.986;2023-02-03T04:21:37;3.77;;;2.10;;
32826;SDS011;51059;42.058;27.986;2023-02-03T04:24:03;5.43;;;3.00;;
32826;SDS011;51059;42.058;27.986;2023-02-03T04:26:29;5.03;;;2.70;;
32826;SDS011;51059;42.058;27.986;2023-02-03T04:28:54;5.20;;;2.13;;
32826;SDS011;51059;42.058;27.986;2023-02-03T04:31:20;2.53;;;1.80;;
32826;SDS011;51059;42.058;27.986;2023-02-03T04:33:45;3.50;;;1.90;;
32826;SDS011;51059;42.058;27.986;2023-02-03T04:36:11;3.80;;;2.00;;
32826;SDS011;51059;42.058;27.986;2023-02-03T04:38:36;3.10;;;2.33;;
32826;SDS011;51059;42.058;27.986;2023-02-03T04:41:02;3.40;;;1.90;;
32826;SDS011;51059;42.058;27.986;2023-02-03T04:43:27;7.33;;;2.97;;
32826;SDS011;51059;42.058;27.986;2023-02-03T04:45:53;5.17;;;2.13;;
32826;SDS011;51059;42.058;27.986;2023-02-03T04:48:19;3.77;;;2.37;;
32826;SDS011;51059;42.058;27.986;2023-02-03T04:50:44;7.00;;;2.60;;
32826;SDS011;51059;42.058;27.986;2023-02-03T04:53:10;6.20;;;2.73;;
32826;SDS011;51059;42.058;27.986;2023-02-03T04:55:35;6.97;;;3.10;;
32826;SDS011;51059;42.058;27.986;2023-02-03T04:58:01;4.70;;;2.87;;
32826;SDS011;51059;42.058;27.986;2023-02-03T05:00:27;4.87;;;3.07;;
32826;SDS011;51059;42.058;27.986;2023-02-03T05:02:53;5.50;;;3.20;;
32826;SDS011;51059;42.058;27.986;2023-02-03T05:05:19;5.50;;;2.77;;
32826;SDS011;51059;42.058;27.986;2023-02-03T05:07:45;3.97;;;2.60;;
32826;SDS011;51059;42.058;27.986;2023-02-03T05:10:11;5.27;;;2.27;;
32826;SDS011;51059;42.058;27.986;2023-02-03T05:12:36;4.07;;;2.10;;
32826;SDS011;51059;42.058;27.986;2023-02-03T05:15:02;4.37;;;2.10;;
32826;SDS011;51059;42.058;27.986;2023-02-03T05:17:27;2.57;;;2.00;;
32826;SDS011;51059;42.058;27.986;2023-02-03T05:19:53;4.20;;;2.57;;
32826;SDS011;51059;42.058;27.986;2023-02-03T05:22:19;4.27;;;2.23;;
32826;SDS011;51059;42.058;27.986;2023-02-03T05:24:44;3.83;;;2.10;;
32826;SDS011;51059;42.058;27.986;2023-02-03T05:27:10;3.33;;;2.13;;
32826;SDS011;51059;42.058;27.986;2023-02-03T05:29:36;3.90;;;2.23;;
32826;SDS011;51059;42.058;27.986;2023-02-03T05:32:01;3.60;;;2.17;;
32826;SDS011;51059;42.058;27.986;2023-02-03T05:34:27;5.67;;;2.70;;
32826;SDS011;51059;42.058;27.986;2023-02-03T05:36:52;3.67;;;2.60;;
32826;SDS011;51059;42.058;27.986;2023-02-03T05:39:18;4.50;;;2.43;;
32826;SDS011;51059;42.058;27.986;2023-02-03T05:41:43;5.87;;;2.43;;
32826;SDS011;51059;42.058;27.986;2023-02-03T05:44:21;3.93;;;2.57;;
32826;SDS011;51059;42.058;27.986;2023-02-03T05:46:48;4.10;;;2.30;;
32826;SDS011;51059;42.058;27.986;2023-02-03T05:49:14;4.10;;;2.23;;
32826;SDS011;51059;42.058;27.986;2023-02-03T05:51:40;3.90;;;2.50;;
32826;SDS011;51059;42.058;27.986;2023-02-03T05:54:06;5.17;;;2.43;;
32826;SDS011;51059;42.058;27.986;2023-02-03T05:56:32;6.53;;;2.50;;
32826;SDS011;51059;42.058;27.986;2023-02-03T05:58:58;4.07;;;2.57;;
32826;SDS011;51059;42.058;27.986;2023-02-03T06:01:24;4.93;;;2.80;;
32826;SDS011;51059;42.058;27.986;2023-02-03T06:03:49;5.00;;;3.17;;
32826;SDS011;51059;42.058;27.986;2023-02-03T06:06:15;7.37;;;3.93;;
32826;SDS011;51059;42.058;27.986;2023-02-03T06:08:42;9.73;;;3.60;;
32826;SDS011;51059;42.058;27.986;2023-02-03T06:11:08;4.67;;;2.67;;
32826;SDS011;51059;42.058;27.986;2023-02-03T06:13:34;7.93;;;2.80;;
32826;SDS011;51059;42.058;27.986;2023-02-03T06:15:59;4.70;;;2.57;;
32826;SDS011;51059;42.058;27.986;2023-02-03T06:18:25;5.60;;;2.80;;
32826;SDS011;51059;42.058;27.986;2023-02-03T06:20:51;4.67;;;2.23;;
32826;SDS011;51059;42.058;27.986;2023-02-03T06:23:16;3.60;;;2.10;;
32826;SDS011;51059;42.058;27.986;2023-02-03T06:25:43;4.40;;;2.17;;
32826;SDS011;51059;42.058;27.986;2023-02-03T06:28:09;4.57;;;1.93;;
32826;SDS011;51059;42.058;27.986;2023-02-03T06:30:35;4.07;;;2.50;;
32826;SDS011;51059;42.058;27.986;2023-02-03T06:33:01;8.87;;;3.17;;
32826;SDS011;51059;42.058;27.986;2023-02-03T06:35:26;6.07;;;3.97;;
32826;SDS011;51059;42.058;27.986;2023-02-03T06:37:52;5.73;;;3.77;;
32826;SDS011;51059;42.058;27.986;2023-02-03T06:40:18;7.50;;;3.90;;
32826;SDS011;51059;42.058;27.986;2023-02-03T06:42:44;5.90;;;3.77;;
32826;SDS011;51059;42.058;27.986;2023-02-03T06:45:11;7.40;;;3.87;;
32826;SDS011;51059;42.058;27.986;2023-02-03T06:47:40;8.10;;;4.63;;
32826;SDS011;51059;42.058;27.986;2023-02-03T06:50:07;9.70;;;5.40;;
32826;SDS011;51059;42.058;27.986;2023-02-03T06:52:33;7.47;;;4.20;;
32826;SDS011;51059;42.058;27.986;2023-02-03T06:54:59;6.23;;;3.80;;
32826;SDS011;51059;42.058;27.986;2023-02-03T06:57:24;4.93;;;3.60;;
32826;SDS011;51059;42.058;27.986;2023-02-03T06:59:50;6.83;;;4.20;;
32826;SDS011;51059;42.058;27.986;2023-02-03T07:02:15;6.03;;;3.30;;
32826;SDS011;51059;42.058;27.986;2023-02-03T07:04:41;5.13;;;2.70;;
32826;SDS011;51059;42.058;27.986;2023-02-03T07:07:09;3.47;;;2.50;;
32826;SDS011;51059;42.058;27.986;2023-02-03T07:09:36;4.30;;;2.43;;
32826;SDS011;51059;42.058;27.986;2023-02-03T07:12:03;3.73;;;2.10;;
32826;SDS011;51059;42.058;27.986;2023-02-03T07:14:29;3.47;;;2.17;;
32826;SDS011;51059;42.058;27.986;2023-02-03T07:17:00;6.63;;;2.47;;
32826;SDS011;51059;42.058;27.986;2023-02-03T07:19:26;3.60;;;2.43;;
32826;SDS011;51059;42.058;27.986;2023-02-03T07:21:52;4.10;;;2.93;;
32826;SDS011;51059;42.058;27.986;2023-02-03T07:24:18;3.73;;;2.70;;
32826;SDS011;51059;42.058;27.986;2023-02-03T07:26:44;4.90;;;2.50;;
32826;SDS011;51059;42.058;27.986;2023-02-03T07:29:09;5.37;;;3.17;;
32826;SDS011;51059;42.058;27.986;2023-02-03T07:31:35;3.77;;;2.90;;
32826;SDS011;51059;42.058;27.986;2023-02-03T07:34:00;6.57;;;2.70;;
32826;SDS011;51059;42.058;27.986;2023-02-03T07:36:26;3.90;;;2.60;;
32826;SDS011;51059;42.058;27.986;2023-02-03T07:38:53;5.10;;;3.80;;
32826;SDS011;51059;42.058;27.986;2023-02-03T07:41:19;6.47;;;3.53;;
32826;SDS011;51059;42.058;27.986;2023-02-03T07:43:44;4.93;;;3.07;;
32826;SDS011;51059;42.058;27.986;2023-02-03T07:46:10;4.73;;;3.00;;
32826;SDS011;51059;42.058;27.986;2023-02-03T07:48:36;4.20;;;2.80;;
32826;SDS011;51059;42.058;27.986;2023-02-03T07:51:02;5.63;;;3.13;;
32826;SDS011;51059;42.058;27.986;2023-02-03T07:53:27;5.23;;;2.97;;
32826;SDS011;51059;42.058;27.986;2023-02-03T07:55:53;7.77;;;3.07;;
32826;SDS011;51059;42.058;27.986;2023-02-03T07:58:18;3.97;;;2.83;;
32826;SDS011;51059;42.058;27.986;2023-02-03T08:00:44;4.53;;;2.90;;
32826;SDS011;51059;42.058;27.986;2023-02-03T08:03:09;6.47;;;3.30;;
32826;SDS011;51059;42.058;27.986;2023-02-03T08:05:35;5.37;;;3.57;;
32826;SDS011;51059;42.058;27.986;2023-02-03T08:08:01;6.03;;;3.90;;
32826;SDS011;51059;42.058;27.986;2023-02-03T08:10:26;8.87;;;4.67;;
32826;SDS011;51059;42.058;27.986;2023-02-03T08:12:52;6.33;;;3.93;;
32826;SDS011;51059;42.058;27.986;2023-02-03T08:15:18;5.63;;;3.00;;
32826;SDS011;51059;42.058;27.986;2023-02-03T08:17:44;5.40;;;4.07;;
32826;SDS011;51059;42.058;27.986;2023-02-03T08:20:10;4.87;;;3.10;;
32826;SDS011;51059;42.058;27.986;2023-02-03T08:22:36;5.97;;;3.60;;
32826;SDS011;51059;42.058;27.986;2023-02-03T08:25:02;5.60;;;4.00;;
32826;SDS011;51059;42.058;27.986;2023-02-03T08:27:29;7.43;;;4.13;;
32826;SDS011;51059;42.058;27.986;2023-02-03T08:29:55;12.70;;;8.47;;
32826;SDS011;51059;42.058;27.986;2023-02-03T08:32:21;5.77;;;3.90;;
32826;SDS011;51059;42.058;27.986;2023-02-03T08:34:48;6.43;;;4.70;;
32826;SDS011;51059;42.058;27.986;2023-02-03T08:37:14;6.07;;;3.60;;
32826;SDS011;51059;42.058;27.986;2023-02-03T08:39:41;5.27;;;3.10;;
32826;SDS011;51059;42.058;27.986;2023-02-03T08:42:07;6.77;;;4.90;;
32826;SDS011;51059;42.058;27.986;2023-02-03T08:44:34;6.03;;;3.30;;
32826;SDS011;51059;42.058;27.986;2023-02-03T08:47:00;4.03;;;2.57;;
32826;SDS011;51059;42.058;27.986;2023-02-03T08:49:27;3.90;;;2.37;;
32826;SDS011;51059;42.058;27.986;2023-02-03T08:51:53;6.53;;;2.90;;
32826;SDS011;51059;42.058;27.986;2023-02-03T08:54:19;4.90;;;2.60;;
32826;SDS011;51059;42.058;27.986;2023-02-03T08:56:46;5.00;;;2.40;;
32826;SDS011;51059;42.058;27.986;2023-02-03T08:59:12;5.37;;;2.87;;
32826;SDS011;51059;42.058;27.986;2023-02-03T09:01:38;3.37;;;2.43;;
32826;SDS011;51059;42.058;27.986;2023-02-03T09:04:10;4.70;;;2.70;;
32826;SDS011;51059;42.058;27.986;2023-02-03T09:06:36;5.73;;;2.60;;
32826;SDS011;51059;42.058;27.986;2023-02-03T09:09:03;4.37;;;2.90;;
32826;SDS011;51059;42.058;27.986;2023-02-03T09:11:29;4.77;;;2.80;;
32826;SDS011;51059;42.058;27.986;2023-02-03T09:13:55;5.60;;;3.13;;
32826;SDS011;51059;42.058;27.986;2023-02-03T09:16:22;6.80;;;3.20;;
32826;SDS011;51059;42.058;27.986;2023-02-03T09:18:49;6.07;;;3.20;;
32826;SDS011;51059;42.058;27.986;2023-02-03T09:21:15;4.50;;;3.33;;
32826;SDS011;51059;42.058;27.986;2023-02-03T09:23:42;5.10;;;3.27;;
32826;SDS011;51059;42.058;27.986;2023-02-03T09:26:09;4.87;;;3.10;;
32826;SDS011;51059;42.058;27.986;2023-02-03T09:28:39;4.67;;;3.10;;
32826;SDS011;51059;42.058;27.986;2023-02-03T09:31:06;5.53;;;3.03;;
32826;SDS011;51059;42.058;27.986;2023-02-03T09:33:41;7.17;;;3.37;;
32826;SDS011;51059;42.058;27.986;2023-02-03T09:36:07;5.50;;;3.10;;
32826;SDS011;51059;42.058;27.986;2023-02-03T09:38:34;4.90;;;3.50;;
32826;SDS011;51059;42.058;27.986;2023-02-03T09:46:15;4.87;;;2.93;;
32826;SDS011;51059;42.058;27.986;2023-02-03T09:48:42;3.97;;;3.00;;
32826;SDS011;51059;42.058;27.986;2023-02-03T09:51:18;5.00;;;3.20;;
32826;SDS011;51059;42.058;27.986;2023-02-03T09:54:06;4.93;;;2.93;;
32826;SDS011;51059;42.058;27.986;2023-02-03T09:56:40;4.20;;;2.90;;
32826;SDS011;51059;42.058;27.986;2023-02-03T09:59:10;3.83;;;2.83;;
32826;SDS011;51059;42.058;27.986;2023-02-03T10:08:01;4.20;;;2.70;;
32826;SDS011;51059;42.058;27.986;2023-02-03T10:13:11;6.40;;;2.70;;
32826;SDS011;51059;42.058;27.986;2023-02-03T10:15:52;7.70;;;3.70;;
32826;SDS011;51059;42.058;27.986;2023-02-03T10:18:24;4.20;;;2.60;;
32826;SDS011;51059;42.058;27.986;2023-02-03T10:21:01;4.70;;;2.50;;
32826;SDS011;51059;42.058;27.986;2023-02-03T10:23:30;3.17;;;2.37;;
32826;SDS011;51059;42.058;27.986;2023-02-03T10:25:58;3.17;;;2.73;;
32826;SDS011;51059;42.058;27.986;2023-02-03T10:28:30;5.87;;;3.80;;
32826;SDS011;51059;42.058;27.986;2023-02-03T10:31:02;4.57;;;2.80;;
32826;SDS011;51059;42.058;27.986;2023-02-03T10:33:33;3.70;;;2.40;;
32826;SDS011;51059;42.058;27.986;2023-02-03T10:38:49;3.20;;;2.17;;
32826;SDS011;51059;42.058;27.986;2023-02-03T10:41:31;2.90;;;2.60;;
32826;SDS011;51059;42.058;27.986;2023-02-03T10:44:04;3.43;;;2.90;;
32826;SDS011;51059;42.058;27.986;2023-02-03T10:46:32;4.67;;;2.47;;
32826;SDS011;51059;42.058;27.986;2023-02-03T10:48:59;4.13;;;2.23;;
32826;SDS011;51059;42.058;27.986;2023-02-03T10:51:28;5.33;;;3.07;;
32826;SDS011;51059;42.058;27.986;2023-02-03T10:54:01;3.33;;;2.57;;
32826;SDS011;51059;42.058;27.986;2023-02-03T10:56:31;3.80;;;2.77;;
32826;SDS011;51059;42.058;27.986;2023-02-03T10:59:00;3.77;;;2.80;;
32826;SDS011;51059;42.058;27.986;2023-02-03T11:04:05;5.00;;;3.20;;
32826;SDS011;51059;42.058;27.986;2023-02-03T11:06:34;4.93;;;3.20;;
32826;SDS011;51059;42.058;27.986;2023-02-03T11:09:00;4.70;;;3.00;;
32826;SDS011;51059;42.058;27.986;2023-02-03T11:11:28;5.13;;;4.20;;
32826;SDS011;51059;42.058;27.986;2023-02-03T11:16:28;3.10;;;2.60;;
32826;SDS011;51059;42.058;27.986;2023-02-03T11:21:50;3.83;;;2.57;;
32826;SDS011;51059;42.058;27.986;2023-02-03T11:24:30;4.27;;;3.30;;
32826;SDS011;51059;42.058;27.986;2023-02-03T11:27:15;4.87;;;3.20;;
32826;SDS011;51059;42.058;27.986;2023-02-03T11:29:44;4.13;;;3.03;;
32826;SDS011;51059;42.058;27.986;2023-02-03T11:34:45;3.77;;;2.80;;
32826;SDS011;51059;42.058;27.986;2023-02-03T11:42:37;3.83;;;2.57;;
32826;SDS011;51059;42.058;27.986;2023-02-03T11:45:14;3.83;;;2.50;;
32826;SDS011;51059;42.058;27.986;2023-02-03T11:47:50;2.83;;;2.50;;
32826;SDS011;51059;42.058;27.986;2023-02-03T12:04:34;8.87;;;3.20;;
32826;SDS011;51059;42.058;27.986;2023-02-03T12:10:06;3.17;;;2.73;;
32826;SDS011;51059;42.058;27.986;2023-02-03T12:13:36;5.40;;;2.73;;
32826;SDS011;51059;42.058;27.986;2023-02-03T12:16:20;3.50;;;2.57;;
32826;SDS011;51059;42.058;27.986;2023-02-03T12:21:43;3.53;;;2.70;;
32826;SDS011;51059;42.058;27.986;2023-02-03T12:27:25;6.33;;;3.20;;
32826;SDS011;51059;42.058;27.986;2023-02-03T12:30:01;4.47;;;3.03;;
32826;SDS011;51059;42.058;27.986;2023-02-03T12:32:33;7.23;;;2.57;;
32826;SDS011;51059;42.058;27.986;2023-02-03T12:35:16;4.77;;;2.87;;
32826;SDS011;51059;42.058;27.986;2023-02-03T12:37:49;3.10;;;2.43;;
32826;SDS011;51059;42.058;27.986;2023-02-03T12:40:19;4.43;;;2.30;;
32826;SDS011;51059;42.058;27.986;2023-02-03T12:42:52;3.33;;;2.53;;
32826;SDS011;51059;42.058;27.986;2023-02-03T12:45:22;3.80;;;2.70;;
32826;SDS011;51059;42.058;27.986;2023-02-03T12:47:51;4.13;;;2.90;;
32826;SDS011;51059;42.058;27.986;2023-02-03T12:53:06;5.43;;;2.90;;
32826;SDS011;51059;42.058;27.986;2023-02-03T12:55:39;4.17;;;2.80;;
32826;SDS011;51059;42.058;27.986;2023-02-03T12:58:43;4.83;;;3.40;;
32826;SDS011;51059;42.058;27.986;2023-02-03T13:01:21;4.23;;;2.83;;
32826;SDS011;51059;42.058;27.986;2023-02-03T13:04:02;5.60;;;3.47;;
32826;SDS011;51059;42.058;27.986;2023-02-03T13:06:35;7.97;;;3.37;;
32826;SDS011;51059;42.058;27.986;2023-02-03T13:14:45;4.00;;;3.33;;
32826;SDS011;51059;42.058;27.986;2023-02-03T13:17:19;5.10;;;3.27;;
32826;SDS011;51059;42.058;27.986;2023-02-03T13:19:50;3.73;;;2.83;;
32826;SDS011;51059;42.058;27.986;2023-02-03T13:22:19;6.60;;;3.70;;
32826;SDS011;51059;42.058;27.986;2023-02-03T13:30:07;3.63;;;3.20;;
32826;SDS011;51059;42.058;27.986;2023-02-03T13:43:46;8.20;;;3.87;;
32826;SDS011;51059;42.058;27.986;2023-02-03T13:48:47;3.80;;;3.17;;
32826;SDS011;51059;42.058;27.986;2023-02-03T13:51:13;4.60;;;3.47;;
32826;SDS011;51059;42.058;27.986;2023-02-03T13:53:42;3.93;;;3.50;;
32826;SDS011;51059;42.058;27.986;2023-02-03T13:56:16;4.80;;;3.77;;
32826;SDS011;51059;42.058;27.986;2023-02-03T13:58:57;3.57;;;3.27;;
32826;SDS011;51059;42.058;27.986;2023-02-03T14:01:33;4.50;;;3.27;;
32826;SDS011;51059;42.058;27.986;2023-02-03T14:04:01;5.13;;;3.20;;
32826;SDS011;51059;42.058;27.986;2023-02-03T14:09:01;4.67;;;3.60;;
32826;SDS011;51059;42.058;27.986;2023-02-03T14:16:39;6.27;;;4.03;;
32826;SDS011;51059;42.058;27.986;2023-02-03T14:21:48;5.80;;;3.90;;
32826;SDS011;51059;42.058;27.986;2023-02-03T14:24:16;6.03;;;4.00;;
32826;SDS011;51059;42.058;27.986;2023-02-03T14:26:46;4.80;;;3.87;;
32826;SDS011;51059;42.058;27.986;2023-02-03T14:29:34;5.93;;;4.13;;
32826;SDS011;51059;42.058;27.986;2023-02-03T14:32:01;6.23;;;4.73;;
32826;SDS011;51059;42.058;27.986;2023-02-03T14:39:56;6.97;;;5.53;;
32826;SDS011;51059;42.058;27.986;2023-02-03T14:48:40;4.27;;;3.40;;
32826;SDS011;51059;42.058;27.986;2023-02-03T15:08:02;6.80;;;4.47;;
32826;SDS011;51059;42.058;27.986;2023-02-03T15:10:29;7.00;;;4.40;;
32826;SDS011;51059;42.058;27.986;2023-02-03T15:13:22;6.07;;;4.40;;
32826;SDS011;51059;42.058;27.986;2023-02-03T15:15:55;6.67;;;4.50;;
32826;SDS011;51059;42.058;27.986;2023-02-03T15:18:30;5.40;;;4.07;;
32826;SDS011;51059;42.058;27.986;2023-02-03T15:20:57;6.50;;;4.20;;
32826;SDS011;51059;42.058;27.986;2023-02-03T15:23:23;6.07;;;4.37;;
32826;SDS011;51059;42.058;27.986;2023-02-03T15:25:57;4.97;;;3.93;;
32826;SDS011;51059;42.058;27.986;2023-02-03T15:28:28;5.73;;;3.87;;
32826;SDS011;51059;42.058;27.986;2023-02-03T15:33:19;6.27;;;4.47;;
32826;SDS011;51059;42.058;27.986;2023-02-03T15:35:47;5.20;;;4.30;;
32826;SDS011;51059;42.058;27.986;2023-02-03T15:38:18;7.60;;;4.40;;
32826;SDS011;51059;42.058;27.986;2023-02-03T15:40:55;5.40;;;3.80;;
32826;SDS011;51059;42.058;27.986;2023-02-03T15:50:55;6.37;;;4.30;;
32826;SDS011;51059;42.058;27.986;2023-02-03T15:53:31;5.80;;;4.53;;
32826;SDS011;51059;42.058;27.986;2023-02-03T15:55:59;7.30;;;5.30;;
32826;SDS011;51059;42.058;27.986;2023-02-03T15:58:29;6.17;;;4.40;;
32826;SDS011;51059;42.058;27.986;2023-02-03T16:01:02;6.93;;;4.37;;
32826;SDS011;51059;42.058;27.986;2023-02-03T16:03:37;6.20;;;4.90;;
32826;SDS011;51059;42.058;27.986;2023-02-03T16:06:08;12.20;;;6.90;;
32826;SDS011;51059;42.058;27.986;2023-02-03T16:08:41;16.73;;;9.20;;
32826;SDS011;51059;42.058;27.986;2023-02-03T16:13:52;18.03;;;10.63;;
32826;SDS011;51059;42.058;27.986;2023-02-03T16:16:25;15.33;;;8.70;;
32826;SDS011;51059;42.058;27.986;2023-02-03T16:18:55;11.70;;;8.03;;
32826;SDS011;51059;42.058;27.986;2023-02-03T16:21:29;8.10;;;6.43;;
32826;SDS011;51059;42.058;27.986;2023-02-03T16:23:57;8.13;;;5.93;;
32826;SDS011;51059;42.058;27.986;2023-02-03T16:26:24;7.43;;;5.93;;
32826;SDS011;51059;42.058;27.986;2023-02-03T16:29:10;8.13;;;5.60;;
32826;SDS011;51059;42.058;27.986;2023-02-03T16:31:55;8.83;;;6.50;;
32826;SDS011;51059;42.058;27.986;2023-02-03T16:34:39;8.23;;;6.30;;
32826;SDS011;51059;42.058;27.986;2023-02-03T16:37:24;9.43;;;6.60;;
32826;SDS011;51059;42.058;27.986;2023-02-03T16:40:15;11.23;;;7.63;;
32826;SDS011;51059;42.058;27.986;2023-02-03T16:43:03;12.33;;;8.27;;
32826;SDS011;51059;42.058;27.986;2023-02-03T16:45:52;10.70;;;7.10;;
32826;SDS011;51059;42.058;27.986;2023-02-03T16:48:38;8.77;;;6.23;;
32826;SDS011;51059;42.058;27.986;2023-02-03T16:51:22;7.23;;;5.03;;
32826;SDS011;51059;42.058;27.986;2023-02-03T16:53:47;7.53;;;4.83;;
32826;SDS011;51059;42.058;27.986;2023-02-03T16:56:13;6.97;;;5.30;;
32826;SDS011;51059;42.058;27.986;2023-02-03T16:58:39;6.47;;;5.10;;
32826;SDS011;51059;42.058;27.986;2023-02-03T17:01:05;7.70;;;5.67;;
32826;SDS011;51059;42.058;27.986;2023-02-03T17:03:33;9.73;;;6.80;;
32826;SDS011;51059;42.058;27.986;2023-02-03T17:06:05;8.43;;;5.83;;
32826;SDS011;51059;42.058;27.986;2023-02-03T17:08:33;6.53;;;5.10;;
32826;SDS011;51059;42.058;27.986;2023-02-03T17:11:03;8.37;;;6.00;;
32826;SDS011;51059;42.058;27.986;2023-02-03T17:13:29;6.70;;;5.53;;
32826;SDS011;51059;42.058;27.986;2023-02-03T17:15:55;8.10;;;5.57;;
32826;SDS011;51059;42.058;27.986;2023-02-03T17:18:22;7.27;;;5.57;;
32826;SDS011;51059;42.058;27.986;2023-02-03T17:20:48;5.67;;;5.07;;
32826;SDS011;51059;42.058;27.986;2023-02-03T17:23:14;6.33;;;5.13;;
32826;SDS011;51059;42.058;27.986;2023-02-03T17:25:42;6.53;;;5.50;;